sensor_id;sensor_type;location;lat;lon;timestamp;temperature;humidity
9049;DHT22;4559;47.252;9.592;2022-10-17T00:01:03;14.40;99.90
9049;DHT22;4559;47.252;9.592;2022-10-17T00:03:29;14.40;99.90
9049;DHT22;4559;47.252;9.592;2022-10-17T00:05:55;14.40;99.90
9049;DHT22;4559;47.252;9.592;2022-10-17T00:08:21;14.40;99.90
9049;DHT22;4559;47.252;9.592;2022-10-17T00:11:03;14.30;99.90
9049;DHT22;4559;47.252;9.592;2022-10-17T00:13:29;14.30;99.90
9049;DHT22;4559;47.252;9.592;2022-10-17T00:15:55;14.30;99.90
9049;DHT22;4559;47.252;9.592;2022-10-17T00:18:21;14.20;99.90
9049;DHT22;4559;47.252;9.592;2022-10-17T00:20:47;14.20;99.90
9049;DHT22;4559;47.252;9.592;2022-10-17T00:23:12;14.20;99.90
9049;DHT22;4559;47.252;9.592;2022-10-17T00:25:38;14.20;99.90
9049;DHT22;4559;47.252;9.592;2022-10-17T00:28:07;14.10;99.90
9049;DHT22;4559;47.252;9.592;2022-10-17T00:30:33;14.10;99.90
9049;DHT22;4559;47.252;9.592;2022-10-17T00:32:58;14.10;99.90
9049;DHT22;4559;47.252;9.592;2022-10-17T00:35:24;14.10;99.90
9049;DHT22;4559;47.252;9.592;2022-10-17T00:37:49;14.10;99.90
9049;DHT22;4559;47.252;9.592;2022-10-17T00:40:15;14.00;99.90
9049;DHT22;4559;47.252;9.592;2022-10-17T00:42:41;14.00;99.90
9049;DHT22;4559;47.252;9.592;2022-10-17T00:45:16;14.00;99.90
9049;DHT22;4559;47.252;9.592;2022-10-17T00:47:45;14.00;99.90
9049;DHT22;4559;47.252;9.592;2022-10-17T00:50:12;14.00;99.90
9049;DHT22;4559;47.252;9.592;2022-10-17T00:52:39;13.90;99.90
9049;DHT22;4559;47.252;9.592;2022-10-17T00:55:17;13.90;99.90
9049;DHT22;4559;47.252;9.592;2022-10-17T00:57:44;13.90;99.90
9049;DHT22;4559;47.252;9.592;2022-10-17T01:00:12;13.90;99.90
9049;DHT22;4559;47.252;9.592;2022-10-17T01:02:38;13.90;99.90
9049;DHT22;4559;47.252;9.592;2022-10-17T01:05:04;13.80;99.90
9049;DHT22;4559;47.252;9.592;2022-10-17T01:07:31;13.80;99.90
9049;DHT22;4559;47.252;9.592;2022-10-17T01:09:57;13.80;99.90
9049;DHT22;4559;47.252;9.592;2022-10-17T01:12:37;13.70;99.90
9049;DHT22;4559;47.252;9.592;2022-10-17T01:23:26;13.70;99.90
9049;DHT22;4559;47.252;9.592;2022-10-17T01:25:56;13.60;99.90
9049;DHT22;4559;47.252;9.592;2022-10-17T01:31:15;13.60;99.90
9049;DHT22;4559;47.252;9.592;2022-10-17T01:37:01;13.50;99.90
9049;DHT22;4559;47.252;9.592;2022-10-17T01:39:58;13.50;99.90
9049;DHT22;4559;47.252;9.592;2022-10-17T01:42:37;13.50;99.90
9049;DHT22;4559;47.252;9.592;2022-10-17T01:47:39;13.40;99.90
9049;DHT22;4559;47.252;9.592;2022-10-17T01:50:36;13.40;99.90
9049;DHT22;4559;47.252;9.592;2022-10-17T01:53:17;13.40;99.90
9049;DHT22;4559;47.252;9.592;2022-10-17T01:55:45;13.40;99.90
9049;DHT22;4559;47.252;9.592;2022-10-17T01:58:24;13.30;99.90
9049;DHT22;4559;47.252;9.592;2022-10-17T02:00:53;13.30;99.90
9049;DHT22;4559;47.252;9.592;2022-10-17T02:03:21;13.30;99.90
9049;DHT22;4559;47.252;9.592;2022-10-17T02:05:47;13.30;99.90
9049;DHT22;4559;47.252;9.592;2022-10-17T02:08:14;13.30;99.90
9049;DHT22;4559;47.252;9.592;2022-10-17T02:11:03;13.20;99.90
9049;DHT22;4559;47.252;9.592;2022-10-17T02:14:08;13.20;99.90
9049;DHT22;4559;47.252;9.592;2022-10-17T02:16:42;13.20;99.90
9049;DHT22;4559;47.252;9.592;2022-10-17T02:22:09;13.20;99.90
9049;DHT22;4559;47.252;9.592;2022-10-17T02:28:04;13.10;99.90
9049;DHT22;4559;47.252;9.592;2022-10-17T02:31:02;13.10;99.90
9049;DHT22;4559;47.252;9.592;2022-10-17T02:33:36;13.10;99.90
9049;DHT22;4559;47.252;9.592;2022-10-17T02:36:09;13.00;99.90
9049;DHT22;4559;47.252;9.592;2022-10-17T02:38:37;13.00;99.90
9049;DHT22;4559;47.252;9.592;2022-10-17T02:41:07;13.00;99.90
9049;DHT22;4559;47.252;9.592;2022-10-17T02:43:35;13.00;99.90
9049;DHT22;4559;47.252;9.592;2022-10-17T02:46:01;13.00;99.90
9049;DHT22;4559;47.252;9.592;2022-10-17T02:48:35;13.00;99.90
9049;DHT22;4559;47.252;9.592;2022-10-17T02:53:51;12.90;99.90
9049;DHT22;4559;47.252;9.592;2022-10-17T02:56:19;12.90;99.90
9049;DHT22;4559;47.252;9.592;2022-10-17T02:58:49;12.90;99.90
9049;DHT22;4559;47.252;9.592;2022-10-17T03:01:16;12.90;99.90
9049;DHT22;4559;47.252;9.592;2022-10-17T03:03:42;12.80;99.90
9049;DHT22;4559;47.252;9.592;2022-10-17T03:06:07;12.80;99.90
9049;DHT22;4559;47.252;9.592;2022-10-17T03:08:33;12.80;99.90
9049;DHT22;4559;47.252;9.592;2022-10-17T03:10:59;12.70;99.90
9049;DHT22;4559;47.252;9.592;2022-10-17T03:13:24;12.70;99.90
9049;DHT22;4559;47.252;9.592;2022-10-17T03:15:50;12.70;99.90
9049;DHT22;4559;47.252;9.592;2022-10-17T03:18:15;12.60;99.90
9049;DHT22;4559;47.252;9.592;2022-10-17T03:20:41;12.60;99.90
9049;DHT22;4559;47.252;9.592;2022-10-17T03:23:07;12.60;99.90
9049;DHT22;4559;47.252;9.592;2022-10-17T03:25:32;12.60;99.90
9049;DHT22;4559;47.252;9.592;2022-10-17T03:27:59;12.50;99.90
9049;DHT22;4559;47.252;9.592;2022-10-17T03:30:26;12.60;99.90
9049;DHT22;4559;47.252;9.592;2022-10-17T03:32:51;12.60;99.90
9049;DHT22;4559;47.252;9.592;2022-10-17T03:35:17;12.60;99.90
9049;DHT22;4559;47.252;9.592;2022-10-17T03:37:42;12.60;99.90
9049;DHT22;4559;47.252;9.592;2022-10-17T03:40:09;12.50;99.90
9049;DHT22;4559;47.252;9.592;2022-10-17T03:42:34;12.50;99.90
9049;DHT22;4559;47.252;9.592;2022-10-17T03:45:00;12.50;99.90
9049;DHT22;4559;47.252;9.592;2022-10-17T03:47:27;12.50;99.90
9049;DHT22;4559;47.252;9.592;2022-10-17T03:49:53;12.40;99.90
9049;DHT22;4559;47.252;9.592;2022-10-17T03:52:18;12.40;99.90
9049;DHT22;4559;47.252;9.592;2022-10-17T03:54:44;12.40;99.90
9049;DHT22;4559;47.252;9.592;2022-10-17T03:57:10;12.40;99.90
9049;DHT22;4559;47.252;9.592;2022-10-17T03:59:35;12.30;99.90
9049;DHT22;4559;47.252;9.592;2022-10-17T04:02:01;12.20;99.90
9049;DHT22;4559;47.252;9.592;2022-10-17T04:04:26;12.10;99.90
9049;DHT22;4559;47.252;9.592;2022-10-17T04:06:52;12.00;99.90
9049;DHT22;4559;47.252;9.592;2022-10-17T04:09:18;12.00;99.90
9049;DHT22;4559;47.252;9.592;2022-10-17T04:11:43;12.10;99.90
9049;DHT22;4559;47.252;9.592;2022-10-17T04:14:09;12.10;99.90
9049;DHT22;4559;47.252;9.592;2022-10-17T04:16:35;12.10;99.90
9049;DHT22;4559;47.252;9.592;2022-10-17T04:19:01;12.10;99.90
9049;DHT22;4559;47.252;9.592;2022-10-17T04:21:27;12.10;99.90
9049;DHT22;4559;47.252;9.592;2022-10-17T04:23:58;12.10;99.90
9049;DHT22;4559;47.252;9.592;2022-10-17T04:26:24;12.10;99.90
9049;DHT22;4559;47.252;9.592;2022-10-17T04:28:50;12.10;99.90
9049;DHT22;4559;47.252;9.592;2022-10-17T04:31:16;12.10;99.90
9049;DHT22;4559;47.252;9.592;2022-10-17T04:33:42;12.00;99.90
9049;DHT22;4559;47.252;9.592;2022-10-17T04:36:12;12.00;99.90
9049;DHT22;4559;47.252;9.592;2022-10-17T04:38:38;11.90;99.90
9049;DHT22;4559;47.252;9.592;2022-10-17T04:41:06;11.80;99.90
9049;DHT22;4559;47.252;9.592;2022-10-17T04:43:35;11.90;99.90
9049;DHT22;4559;47.252;9.592;2022-10-17T04:46:04;11.80;99.90
9049;DHT22;4559;47.252;9.592;2022-10-17T04:48:30;11.80;99.90
9049;DHT22;4559;47.252;9.592;2022-10-17T04:51:08;11.80;99.90
9049;DHT22;4559;47.252;9.592;2022-10-17T04:53:36;11.80;99.90
9049;DHT22;4559;47.252;9.592;2022-10-17T04:56:10;11.80;99.90
9049;DHT22;4559;47.252;9.592;2022-10-17T04:58:37;11.80;99.90
9049;DHT22;4559;47.252;9.592;2022-10-17T05:01:11;11.80;99.90
9049;DHT22;4559;47.252;9.592;2022-10-17T05:03:37;11.80;99.90
9049;DHT22;4559;47.252;9.592;2022-10-17T05:06:08;11.80;99.90
9049;DHT22;4559;47.252;9.592;2022-10-17T05:08:34;11.80;99.90
9049;DHT22;4559;47.252;9.592;2022-10-17T05:11:00;11.80;99.90
9049;DHT22;4559;47.252;9.592;2022-10-17T05:13:25;11.80;99.90
9049;DHT22;4559;47.252;9.592;2022-10-17T05:15:51;11.80;99.90
9049;DHT22;4559;47.252;9.592;2022-10-17T05:18:17;11.80;99.90
9049;DHT22;4559;47.252;9.592;2022-10-17T05:20:42;11.80;99.90
9049;DHT22;4559;47.252;9.592;2022-10-17T05:23:08;11.80;99.90
9049;DHT22;4559;47.252;9.592;2022-10-17T05:25:33;11.80;99.90
9049;DHT22;4559;47.252;9.592;2022-10-17T05:27:59;11.80;99.90
9049;DHT22;4559;47.252;9.592;2022-10-17T05:30:25;11.80;99.90
9049;DHT22;4559;47.252;9.592;2022-10-17T05:32:54;11.70;99.90
9049;DHT22;4559;47.252;9.592;2022-10-17T05:35:20;11.70;99.90
9049;DHT22;4559;47.252;9.592;2022-10-17T05:37:46;11.70;99.90
9049;DHT22;4559;47.252;9.592;2022-10-17T05:40:12;11.70;99.90
9049;DHT22;4559;47.252;9.592;2022-10-17T05:42:37;11.70;99.90
9049;DHT22;4559;47.252;9.592;2022-10-17T05:45:03;11.70;99.90
9049;DHT22;4559;47.252;9.592;2022-10-17T05:47:29;11.70;99.90
9049;DHT22;4559;47.252;9.592;2022-10-17T05:49:55;11.80;99.90
9049;DHT22;4559;47.252;9.592;2022-10-17T05:52:20;11.80;99.90
9049;DHT22;4559;47.252;9.592;2022-10-17T05:54:46;11.80;99.90
9049;DHT22;4559;47.252;9.592;2022-10-17T05:57:11;11.70;99.90
9049;DHT22;4559;47.252;9.592;2022-10-17T05:59:37;11.70;99.90
9049;DHT22;4559;47.252;9.592;2022-10-17T06:02:03;11.80;99.90
9049;DHT22;4559;47.252;9.592;2022-10-17T06:04:28;11.70;99.90
9049;DHT22;4559;47.252;9.592;2022-10-17T06:06:54;11.80;99.90
9049;DHT22;4559;47.252;9.592;2022-10-17T06:09:21;11.70;99.90
9049;DHT22;4559;47.252;9.592;2022-10-17T06:11:47;11.70;99.90
9049;DHT22;4559;47.252;9.592;2022-10-17T06:14:12;11.70;99.90
9049;DHT22;4559;47.252;9.592;2022-10-17T06:16:38;11.70;99.90
9049;DHT22;4559;47.252;9.592;2022-10-17T06:19:04;11.70;99.90
9049;DHT22;4559;47.252;9.592;2022-10-17T06:21:30;11.70;99.90
9049;DHT22;4559;47.252;9.592;2022-10-17T06:23:58;11.70;99.90
9049;DHT22;4559;47.252;9.592;2022-10-17T06:26:24;11.70;99.90
9049;DHT22;4559;47.252;9.592;2022-10-17T06:28:50;11.70;99.90
9049;DHT22;4559;47.252;9.592;2022-10-17T06:31:17;11.80;99.90
9049;DHT22;4559;47.252;9.592;2022-10-17T06:33:43;11.80;99.90
9049;DHT22;4559;47.252;9.592;2022-10-17T06:36:12;11.80;99.90
9049;DHT22;4559;47.252;9.592;2022-10-17T06:38:37;11.80;99.90
9049;DHT22;4559;47.252;9.592;2022-10-17T06:43:30;11.80;99.90
9049;DHT22;4559;47.252;9.592;2022-10-17T06:45:56;11.80;99.90
9049;DHT22;4559;47.252;9.592;2022-10-17T06:48:22;11.80;99.90
9049;DHT22;4559;47.252;9.592;2022-10-17T06:50:47;11.80;99.90
9049;DHT22;4559;47.252;9.592;2022-10-17T06:53:13;11.80;99.90
9049;DHT22;4559;47.252;9.592;2022-10-17T06:55:38;11.80;99.90
9049;DHT22;4559;47.252;9.592;2022-10-17T06:58:04;11.90;99.90
9049;DHT22;4559;47.252;9.592;2022-10-17T07:00:29;11.90;99.90
9049;DHT22;4559;47.252;9.592;2022-10-17T07:02:55;11.90;99.90
9049;DHT22;4559;47.252;9.592;2022-10-17T07:05:21;12.00;99.90
9049;DHT22;4559;47.252;9.592;2022-10-17T07:07:46;12.00;99.90
9049;DHT22;4559;47.252;9.592;2022-10-17T07:10:12;11.90;99.90
9049;DHT22;4559;47.252;9.592;2022-10-17T07:12:37;12.00;99.90
9049;DHT22;4559;47.252;9.592;2022-10-17T07:15:03;11.90;99.90
9049;DHT22;4559;47.252;9.592;2022-10-17T07:17:30;12.00;99.90
9049;DHT22;4559;47.252;9.592;2022-10-17T07:19:55;12.00;99.90
9049;DHT22;4559;47.252;9.592;2022-10-17T07:22:21;12.00;99.90
9049;DHT22;4559;47.252;9.592;2022-10-17T07:24:47;12.10;99.90
9049;DHT22;4559;47.252;9.592;2022-10-17T07:27:13;12.10;99.90
9049;DHT22;4559;47.252;9.592;2022-10-17T07:29:38;12.10;99.90
9049;DHT22;4559;47.252;9.592;2022-10-17T07:32:04;12.20;99.90
9049;DHT22;4559;47.252;9.592;2022-10-17T07:34:33;12.20;99.90
9049;DHT22;4559;47.252;9.592;2022-10-17T07:36:59;12.30;99.90
9049;DHT22;4559;47.252;9.592;2022-10-17T07:39:24;12.30;99.90
9049;DHT22;4559;47.252;9.592;2022-10-17T07:41:50;12.30;99.90
9049;DHT22;4559;47.252;9.592;2022-10-17T07:44:16;12.40;99.90
9049;DHT22;4559;47.252;9.592;2022-10-17T07:46:41;12.50;99.90
9049;DHT22;4559;47.252;9.592;2022-10-17T07:49:07;12.60;99.90
9049;DHT22;4559;47.252;9.592;2022-10-17T07:51:32;12.80;99.90
9049;DHT22;4559;47.252;9.592;2022-10-17T07:53:58;13.00;99.90
9049;DHT22;4559;47.252;9.592;2022-10-17T07:56:24;13.30;99.90
9049;DHT22;4559;47.252;9.592;2022-10-17T07:58:50;13.60;99.90
9049;DHT22;4559;47.252;9.592;2022-10-17T08:01:16;13.90;99.90
9049;DHT22;4559;47.252;9.592;2022-10-17T08:03:46;14.20;99.90
9049;DHT22;4559;47.252;9.592;2022-10-17T08:06:13;14.50;99.90
9049;DHT22;4559;47.252;9.592;2022-10-17T08:08:40;14.80;99.90
9049;DHT22;4559;47.252;9.592;2022-10-17T08:11:08;15.10;99.90
9049;DHT22;4559;47.252;9.592;2022-10-17T08:13:34;15.30;99.90
9049;DHT22;4559;47.252;9.592;2022-10-17T08:16:01;15.60;99.90
9049;DHT22;4559;47.252;9.592;2022-10-17T08:18:27;15.90;99.90
9049;DHT22;4559;47.252;9.592;2022-10-17T08:20:53;16.20;99.90
9049;DHT22;4559;47.252;9.592;2022-10-17T08:23:18;16.40;99.90
9049;DHT22;4559;47.252;9.592;2022-10-17T08:25:44;16.60;99.90
9049;DHT22;4559;47.252;9.592;2022-10-17T08:28:09;16.80;99.90
9049;DHT22;4559;47.252;9.592;2022-10-17T08:30:35;17.10;99.90
9049;DHT22;4559;47.252;9.592;2022-10-17T08:33:01;17.20;99.90
9049;DHT22;4559;47.252;9.592;2022-10-17T08:35:27;17.40;99.90
9049;DHT22;4559;47.252;9.592;2022-10-17T08:37:52;17.60;99.90
9049;DHT22;4559;47.252;9.592;2022-10-17T08:40:24;17.90;99.90
9049;DHT22;4559;47.252;9.592;2022-10-17T08:45:40;18.20;99.90
9049;DHT22;4559;47.252;9.592;2022-10-17T08:48:13;18.50;99.60
9049;DHT22;4559;47.252;9.592;2022-10-17T08:51:20;18.80;98.80
9049;DHT22;4559;47.252;9.592;2022-10-17T08:53:55;19.00;98.40
9049;DHT22;4559;47.252;9.592;2022-10-17T08:56:36;19.10;98.20
9049;DHT22;4559;47.252;9.592;2022-10-17T08:59:09;19.20;98.00
9049;DHT22;4559;47.252;9.592;2022-10-17T09:20:17;21.10;95.00
9049;DHT22;4559;47.252;9.592;2022-10-17T09:25:19;21.80;92.80
9049;DHT22;4559;47.252;9.592;2022-10-17T09:27:51;22.30;93.20
9049;DHT22;4559;47.252;9.592;2022-10-17T09:32:47;23.10;91.10
9049;DHT22;4559;47.252;9.592;2022-10-17T09:35:13;23.50;90.10
9049;DHT22;4559;47.252;9.592;2022-10-17T09:37:40;23.80;86.30
9049;DHT22;4559;47.252;9.592;2022-10-17T09:40:07;24.20;84.50
9049;DHT22;4559;47.252;9.592;2022-10-17T09:42:38;24.50;83.80
9049;DHT22;4559;47.252;9.592;2022-10-17T09:47:42;25.10;79.40
9049;DHT22;4559;47.252;9.592;2022-10-17T09:50:23;25.50;78.90
9049;DHT22;4559;47.252;9.592;2022-10-17T09:52:51;26.00;77.50
9049;DHT22;4559;47.252;9.592;2022-10-17T09:55:31;26.50;75.60
9049;DHT22;4559;47.252;9.592;2022-10-17T09:58:00;26.90;73.80
9049;DHT22;4559;47.252;9.592;2022-10-17T10:00:29;27.10;70.00
9049;DHT22;4559;47.252;9.592;2022-10-17T10:03:08;27.50;67.70
9049;DHT22;4559;47.252;9.592;2022-10-17T10:05:34;28.00;68.00
9049;DHT22;4559;47.252;9.592;2022-10-17T10:08:10;28.30;66.30
9049;DHT22;4559;47.252;9.592;2022-10-17T10:10:38;28.90;66.10
9049;DHT22;4559;47.252;9.592;2022-10-17T10:15:41;29.70;63.20
9049;DHT22;4559;47.252;9.592;2022-10-17T10:21:14;30.80;60.30
9049;DHT22;4559;47.252;9.592;2022-10-17T10:23:45;31.30;58.60
9049;DHT22;4559;47.252;9.592;2022-10-17T10:26:31;31.30;56.50
9049;DHT22;4559;47.252;9.592;2022-10-17T10:31:44;32.00;54.90
9049;DHT22;4559;47.252;9.592;2022-10-17T10:36:48;32.10;53.70
9049;DHT22;4559;47.252;9.592;2022-10-17T10:41:48;32.50;53.50
9049;DHT22;4559;47.252;9.592;2022-10-17T10:44:15;32.60;52.70
9049;DHT22;4559;47.252;9.592;2022-10-17T10:46:42;32.50;52.70
9049;DHT22;4559;47.252;9.592;2022-10-17T10:49:28;32.20;53.00
9049;DHT22;4559;47.252;9.592;2022-10-17T10:51:56;32.00;53.30
9049;DHT22;4559;47.252;9.592;2022-10-17T10:54:31;31.90;53.90
9049;DHT22;4559;47.252;9.592;2022-10-17T10:57:00;31.90;55.70
9049;DHT22;4559;47.252;9.592;2022-10-17T10:59:53;32.20;55.80
9049;DHT22;4559;47.252;9.592;2022-10-17T11:02:32;32.10;54.60
9049;DHT22;4559;47.252;9.592;2022-10-17T11:08:02;31.90;55.10
9049;DHT22;4559;47.252;9.592;2022-10-17T11:14:37;32.10;55.40
9049;DHT22;4559;47.252;9.592;2022-10-17T11:16:37;32.30;55.00
9049;DHT22;4559;47.252;9.592;2022-10-17T11:19:37;32.20;55.50
9049;DHT22;4559;47.252;9.592;2022-10-17T11:24:57;32.00;57.40
9049;DHT22;4559;47.252;9.592;2022-10-17T11:27:26;31.90;57.30
9049;DHT22;4559;47.252;9.592;2022-10-17T11:29:52;31.80;57.60
9049;DHT22;4559;47.252;9.592;2022-10-17T11:32:22;31.90;57.80
9049;DHT22;4559;47.252;9.592;2022-10-17T11:35:04;32.10;57.90
9049;DHT22;4559;47.252;9.592;2022-10-17T11:37:37;31.80;57.40
9049;DHT22;4559;47.252;9.592;2022-10-17T11:42:35;32.20;56.60
9049;DHT22;4559;47.252;9.592;2022-10-17T11:45:15;31.90;56.50
9049;DHT22;4559;47.252;9.592;2022-10-17T11:47:59;32.00;56.80
9049;DHT22;4559;47.252;9.592;2022-10-17T11:50:29;32.30;56.10
9049;DHT22;4559;47.252;9.592;2022-10-17T11:53:15;32.20;55.60
9049;DHT22;4559;47.252;9.592;2022-10-17T11:55:42;32.30;54.60
9049;DHT22;4559;47.252;9.592;2022-10-17T12:12:07;32.60;54.70
9049;DHT22;4559;47.252;9.592;2022-10-17T12:14:44;32.60;55.10
9049;DHT22;4559;47.252;9.592;2022-10-17T12:20:30;32.20;55.50
9049;DHT22;4559;47.252;9.592;2022-10-17T12:25:53;31.80;55.30
9049;DHT22;4559;47.252;9.592;2022-10-17T12:31:08;31.90;55.80
9049;DHT22;4559;47.252;9.592;2022-10-17T12:38:49;31.70;53.50
9049;DHT22;4559;47.252;9.592;2022-10-17T12:41:16;31.40;54.70
9049;DHT22;4559;47.252;9.592;2022-10-17T12:43:49;31.50;55.20
9049;DHT22;4559;47.252;9.592;2022-10-17T12:46:49;31.50;56.20
9049;DHT22;4559;47.252;9.592;2022-10-17T12:52:18;31.20;56.10
9049;DHT22;4559;47.252;9.592;2022-10-17T12:54:57;31.30;56.00
9049;DHT22;4559;47.252;9.592;2022-10-17T12:57:32;31.40;55.40
9049;DHT22;4559;47.252;9.592;2022-10-17T13:02:57;31.30;55.60
9049;DHT22;4559;47.252;9.592;2022-10-17T13:05:32;30.80;55.60
9049;DHT22;4559;47.252;9.592;2022-10-17T13:08:00;30.90;56.00
9049;DHT22;4559;47.252;9.592;2022-10-17T13:10:30;30.50;56.00
9049;DHT22;4559;47.252;9.592;2022-10-17T13:16:06;30.10;55.90
9049;DHT22;4559;47.252;9.592;2022-10-17T13:18:32;30.00;56.90
9049;DHT22;4559;47.252;9.592;2022-10-17T13:21:14;30.00;57.30
9049;DHT22;4559;47.252;9.592;2022-10-17T13:23:41;30.10;56.70
9049;DHT22;4559;47.252;9.592;2022-10-17T13:28:38;30.20;57.20
9049;DHT22;4559;47.252;9.592;2022-10-17T13:31:04;30.30;57.60
9049;DHT22;4559;47.252;9.592;2022-10-17T13:33:34;30.60;56.80
9049;DHT22;4559;47.252;9.592;2022-10-17T13:36:02;30.10;57.20
9049;DHT22;4559;47.252;9.592;2022-10-17T13:38:30;30.00;57.60
9049;DHT22;4559;47.252;9.592;2022-10-17T13:41:00;30.00;57.60
9049;DHT22;4559;47.252;9.592;2022-10-17T13:43:27;29.90;57.40
9049;DHT22;4559;47.252;9.592;2022-10-17T13:45:57;29.70;58.10
9049;DHT22;4559;47.252;9.592;2022-10-17T13:48:27;29.60;58.40
9049;DHT22;4559;47.252;9.592;2022-10-17T13:50:56;29.70;58.20
9049;DHT22;4559;47.252;9.592;2022-10-17T13:53:37;29.40;58.70
9049;DHT22;4559;47.252;9.592;2022-10-17T13:58:55;29.00;59.90
9049;DHT22;4559;47.252;9.592;2022-10-17T14:01:26;29.00;60.00
9049;DHT22;4559;47.252;9.592;2022-10-17T14:03:53;28.80;60.90
9049;DHT22;4559;47.252;9.592;2022-10-17T14:06:23;28.70;61.40
9049;DHT22;4559;47.252;9.592;2022-10-17T14:13:48;28.40;61.90
9049;DHT22;4559;47.252;9.592;2022-10-17T14:16:14;28.30;62.30
9049;DHT22;4559;47.252;9.592;2022-10-17T14:18:40;28.30;63.30
9049;DHT22;4559;47.252;9.592;2022-10-17T14:21:08;28.10;63.30
9049;DHT22;4559;47.252;9.592;2022-10-17T14:28:45;27.60;65.20
9049;DHT22;4559;47.252;9.592;2022-10-17T14:33:44;27.30;65.50
9049;DHT22;4559;47.252;9.592;2022-10-17T14:36:11;27.20;65.80
9049;DHT22;4559;47.252;9.592;2022-10-17T14:38:37;27.00;66.70
9049;DHT22;4559;47.252;9.592;2022-10-17T14:41:14;26.70;67.30
9049;DHT22;4559;47.252;9.592;2022-10-17T14:43:40;26.40;67.40
9049;DHT22;4559;47.252;9.592;2022-10-17T14:46:12;26.10;67.90
9049;DHT22;4559;47.252;9.592;2022-10-17T14:48:41;25.80;68.10
9049;DHT22;4559;47.252;9.592;2022-10-17T14:51:16;25.50;68.80
9049;DHT22;4559;47.252;9.592;2022-10-17T14:53:43;25.30;69.50
9049;DHT22;4559;47.252;9.592;2022-10-17T14:56:33;25.00;70.20
9049;DHT22;4559;47.252;9.592;2022-10-17T14:58:59;24.80;70.80
9049;DHT22;4559;47.252;9.592;2022-10-17T15:01:27;24.70;71.20
9049;DHT22;4559;47.252;9.592;2022-10-17T15:03:52;24.50;71.60
9049;DHT22;4559;47.252;9.592;2022-10-17T15:06:21;24.40;72.80
9049;DHT22;4559;47.252;9.592;2022-10-17T15:08:47;24.30;73.40
9049;DHT22;4559;47.252;9.592;2022-10-17T15:11:13;24.20;74.10
9049;DHT22;4559;47.252;9.592;2022-10-17T15:13:39;24.20;74.80
9049;DHT22;4559;47.252;9.592;2022-10-17T15:16:22;24.10;75.60
9049;DHT22;4559;47.252;9.592;2022-10-17T15:18:48;24.00;76.50
9049;DHT22;4559;47.252;9.592;2022-10-17T15:21:19;24.00;77.20
9049;DHT22;4559;47.252;9.592;2022-10-17T15:23:45;24.10;76.70
9049;DHT22;4559;47.252;9.592;2022-10-17T15:26:14;24.20;77.30
9049;DHT22;4559;47.252;9.592;2022-10-17T15:28:40;24.30;76.90
9049;DHT22;4559;47.252;9.592;2022-10-17T15:31:07;24.30;77.30
9049;DHT22;4559;47.252;9.592;2022-10-17T15:33:33;24.30;77.40
9049;DHT22;4559;47.252;9.592;2022-10-17T15:35:59;24.30;77.10
9049;DHT22;4559;47.252;9.592;2022-10-17T15:38:24;24.20;76.50
9049;DHT22;4559;47.252;9.592;2022-10-17T15:40:50;24.10;77.40
9049;DHT22;4559;47.252;9.592;2022-10-17T15:43:16;24.00;76.30
9049;DHT22;4559;47.252;9.592;2022-10-17T15:45:41;23.90;76.70
9049;DHT22;4559;47.252;9.592;2022-10-17T15:48:17;23.70;76.60
9049;DHT22;4559;47.252;9.592;2022-10-17T15:50:43;23.60;77.20
9049;DHT22;4559;47.252;9.592;2022-10-17T15:53:13;23.40;77.80
9049;DHT22;4559;47.252;9.592;2022-10-17T15:55:39;23.20;77.60
9049;DHT22;4559;47.252;9.592;2022-10-17T15:58:05;23.00;78.20
9049;DHT22;4559;47.252;9.592;2022-10-17T16:00:30;22.90;77.90
9049;DHT22;4559;47.252;9.592;2022-10-17T16:02:56;22.80;78.00
9049;DHT22;4559;47.252;9.592;2022-10-17T16:05:25;22.70;79.10
9049;DHT22;4559;47.252;9.592;2022-10-17T16:07:51;22.50;80.70
9049;DHT22;4559;47.252;9.592;2022-10-17T16:10:18;22.40;81.80
9049;DHT22;4559;47.252;9.592;2022-10-17T16:12:44;22.30;83.20
9049;DHT22;4559;47.252;9.592;2022-10-17T16:15:16;22.10;84.30
9049;DHT22;4559;47.252;9.592;2022-10-17T16:17:43;21.90;85.60
9049;DHT22;4559;47.252;9.592;2022-10-17T16:20:10;21.80;87.00
9049;DHT22;4559;47.252;9.592;2022-10-17T16:22:36;21.60;88.20
9049;DHT22;4559;47.252;9.592;2022-10-17T16:25:06;21.40;89.30
9049;DHT22;4559;47.252;9.592;2022-10-17T16:27:35;21.30;90.50
9049;DHT22;4559;47.252;9.592;2022-10-17T16:30:03;21.10;90.80
9049;DHT22;4559;47.252;9.592;2022-10-17T16:32:28;21.00;91.40
9049;DHT22;4559;47.252;9.592;2022-10-17T16:34:54;20.80;91.90
9049;DHT22;4559;47.252;9.592;2022-10-17T16:37:20;20.70;92.40
9049;DHT22;4559;47.252;9.592;2022-10-17T16:39:45;20.50;93.10
9049;DHT22;4559;47.252;9.592;2022-10-17T16:42:17;20.40;93.60
9049;DHT22;4559;47.252;9.592;2022-10-17T16:44:43;20.30;94.00
9049;DHT22;4559;47.252;9.592;2022-10-17T16:47:08;20.20;94.70
9049;DHT22;4559;47.252;9.592;2022-10-17T16:49:34;20.00;95.10
9049;DHT22;4559;47.252;9.592;2022-10-17T16:51:59;19.90;95.50
9049;DHT22;4559;47.252;9.592;2022-10-17T16:54:25;19.80;96.00
9049;DHT22;4559;47.252;9.592;2022-10-17T16:56:50;19.70;96.60
9049;DHT22;4559;47.252;9.592;2022-10-17T16:59:16;19.60;97.00
9049;DHT22;4559;47.252;9.592;2022-10-17T17:01:41;19.50;97.40
9049;DHT22;4559;47.252;9.592;2022-10-17T17:04:07;19.40;97.90
9049;DHT22;4559;47.252;9.592;2022-10-17T17:06:35;19.30;98.40
9049;DHT22;4559;47.252;9.592;2022-10-17T17:09:01;19.10;99.00
9049;DHT22;4559;47.252;9.592;2022-10-17T17:11:27;19.00;99.80
9049;DHT22;4559;47.252;9.592;2022-10-17T17:13:57;18.80;99.90
9049;DHT22;4559;47.252;9.592;2022-10-17T17:16:24;18.70;99.90
9049;DHT22;4559;47.252;9.592;2022-10-17T17:19:04;18.70;99.90
9049;DHT22;4559;47.252;9.592;2022-10-17T17:21:31;18.60;99.90
9049;DHT22;4559;47.252;9.592;2022-10-17T17:23:58;18.50;99.90
9049;DHT22;4559;47.252;9.592;2022-10-17T17:26:25;18.40;99.90
9049;DHT22;4559;47.252;9.592;2022-10-17T17:28:51;18.40;99.90
9049;DHT22;4559;47.252;9.592;2022-10-17T17:31:23;18.30;99.90
9049;DHT22;4559;47.252;9.592;2022-10-17T17:33:49;18.20;99.90
9049;DHT22;4559;47.252;9.592;2022-10-17T17:36:18;18.20;99.90
9049;DHT22;4559;47.252;9.592;2022-10-17T17:38:45;18.10;99.90
9049;DHT22;4559;47.252;9.592;2022-10-17T17:41:13;18.00;99.90
9049;DHT22;4559;47.252;9.592;2022-10-17T17:43:39;18.00;99.90
9049;DHT22;4559;47.252;9.592;2022-10-17T17:46:05;17.90;99.90
9049;DHT22;4559;47.252;9.592;2022-10-17T17:48:31;17.80;99.90
9049;DHT22;4559;47.252;9.592;2022-10-17T17:51:02;17.80;99.90
9049;DHT22;4559;47.252;9.592;2022-10-17T17:53:28;17.80;99.90
9049;DHT22;4559;47.252;9.592;2022-10-17T17:56:05;17.70;99.90
9049;DHT22;4559;47.252;9.592;2022-10-17T17:58:31;17.60;99.90
9049;DHT22;4559;47.252;9.592;2022-10-17T18:00:57;17.60;99.90
9049;DHT22;4559;47.252;9.592;2022-10-17T18:03:23;17.60;99.90
9049;DHT22;4559;47.252;9.592;2022-10-17T18:05:49;17.50;99.90
9049;DHT22;4559;47.252;9.592;2022-10-17T18:08:15;17.50;99.90
9049;DHT22;4559;47.252;9.592;2022-10-17T18:10:46;17.40;99.90
9049;DHT22;4559;47.252;9.592;2022-10-17T18:13:11;17.30;99.90
9049;DHT22;4559;47.252;9.592;2022-10-17T18:15:40;17.30;99.90
9049;DHT22;4559;47.252;9.592;2022-10-17T18:18:05;17.30;99.90
9049;DHT22;4559;47.252;9.592;2022-10-17T18:20:31;17.20;99.90
9049;DHT22;4559;47.252;9.592;2022-10-17T18:22:57;17.20;99.90
9049;DHT22;4559;47.252;9.592;2022-10-17T18:25:22;17.20;99.90
9049;DHT22;4559;47.252;9.592;2022-10-17T18:27:48;17.10;99.90
9049;DHT22;4559;47.252;9.592;2022-10-17T18:30:13;17.10;99.90